Time;durP1;ratioP1;P1;durP2;ratioP2;P2;SDS_P1;SDS_P2;PMS_P1;PMS_P2;Temp;Humidity;BMP_temperature;BMP_pressure;BME280_temperature;BME280_humidity;BME280_pressure;Samples;Min_cycle;Max_cycle;Signal;HPM_P1;HPM_P2
2021/03/09 00:00:38;;;;;;;11.30;6.25;;;12.40;92.20;;;;;;5036569;28;20051;-72
2021/03/09 00:03:05;;;;;;;7.88;6.35;;;12.30;92.10;;;;;;5048273;28;20237;-73
2021/03/09 00:05:33;;;;;;;9.20;5.75;;;12.30;92.30;;;;;;5039222;28;20140;-72
2021/03/09 00:08:00;;;;;;;9.60;5.97;;;12.30;92.50;;;;;;5051685;28;20061;-73
2021/03/09 00:10:27;;;;;;;7.45;5.72;;;12.30;92.40;;;;;;5038861;28;20402;-73
2021/03/09 00:12:55;;;;;;;9.77;5.95;;;12.20;92.20;;;;;;5051476;28;20044;-73
2021/03/09 00:15:22;;;;;;;8.00;5.53;;;12.20;92.80;;;;;;5033691;28;20129;-73
2021/03/09 00:17:51;;;;;;;8.98;5.90;;;12.30;93.00;;;;;;5053296;28;20548;-73
2021/03/09 00:20:18;;;;;;;9.20;6.07;;;12.40;91.90;;;;;;5035256;28;20047;-73
2021/03/09 00:22:47;;;;;;;7.75;5.68;;;12.40;92.10;;;;;;5025711;28;20041;-73
2021/03/09 00:25:14;;;;;;;7.18;6.13;;;12.40;92.50;;;;;;5052109;28;20041;-73
2021/03/09 00:27:42;;;;;;;10.10;5.78;;;12.50;92.10;;;;;;5052249;28;20033;-72
2021/03/09 00:30:10;;;;;;;8.57;5.82;;;12.50;92.20;;;;;;5036639;28;20441;-73
2021/03/09 00:32:37;;;;;;;9.68;5.53;;;12.60;92.20;;;;;;5041405;28;20053;-72
2021/03/09 00:35:07;;;;;;;9.77;5.80;;;12.60;92.10;;;;;;5017950;28;20067;-73
2021/03/09 00:37:34;;;;;;;8.32;5.78;;;12.60;92.00;;;;;;5031811;28;20044;-72
2021/03/09 00:40:02;;;;;;;8.77;5.72;;;12.50;92.00;;;;;;5038529;28;20064;-73
2021/03/09 00:42:29;;;;;;;8.27;6.45;;;12.50;92.30;;;;;;5035335;28;20087;-73
2021/03/09 00:44:56;;;;;;;8.00;5.65;;;12.50;92.20;;;;;;5024868;28;20137;-73
2021/03/09 00:47:23;;;;;;;7.93;5.93;;;12.50;92.10;;;;;;5043036;28;20047;-73
2021/03/09 00:49:51;;;;;;;7.90;5.72;;;12.50;92.40;;;;;;5035036;28;20046;-72
2021/03/09 00:52:19;;;;;;;8.43;6.10;;;12.50;92.30;;;;;;5042684;28;20578;-72
2021/03/09 00:54:46;;;;;;;7.72;6.10;;;12.40;92.40;;;;;;5041183;28;20033;-72
2021/03/09 00:57:13;;;;;;;7.13;5.43;;;12.50;92.50;;;;;;5031889;28;20052;-73
2021/03/09 00:59:41;;;;;;;8.23;5.60;;;12.50;92.70;;;;;;5044100;28;20048;-73
2021/03/09 01:02:08;;;;;;;8.52;5.60;;;12.40;92.40;;;;;;5042859;28;20041;-72
2021/03/09 01:04:36;;;;;;;6.70;5.57;;;12.50;92.60;;;;;;5039132;28;20418;-73
2021/03/09 01:07:03;;;;;;;9.30;5.60;;;12.60;92.30;;;;;;5055703;28;20041;-73
2021/03/09 01:09:31;;;;;;;7.38;5.57;;;12.50;92.20;;;;;;5038044;28;20387;-73
2021/03/09 01:11:58;;;;;;;9.18;6.18;;;12.50;92.10;;;;;;5054251;28;20047;-72
2021/03/09 01:14:27;;;;;;;9.00;6.07;;;12.50;91.90;;;;;;5044375;28;20054;-73
2021/03/09 01:16:54;;;;;;;10.00;5.82;;;12.40;91.50;;;;;;5043601;28;20516;-73
2021/03/09 01:19:22;;;;;;;7.75;5.30;;;12.20;92.20;;;;;;5052740;28;20045;-72
2021/03/09 01:21:49;;;;;;;8.50;5.70;;;12.00;92.50;;;;;;5052778;28;20047;-73
2021/03/09 01:24:17;;;;;;;9.77;6.30;;;12.00;93.00;;;;;;5035810;28;20052;-73
2021/03/09 01:26:45;;;;;;;9.43;5.55;;;12.10;92.80;;;;;;5042412;28;20494;-73
2021/03/09 01:29:12;;;;;;;8.95;5.68;;;12.20;92.90;;;;;;5043743;28;20119;-73
2021/03/09 01:31:39;;;;;;;6.47;4.95;;;12.20;92.70;;;;;;5039089;28;20060;-73
2021/03/09 01:34:06;;;;;;;8.00;5.25;;;12.20;92.60;;;;;;5042553;28;20131;-73
2021/03/09 01:36:33;;;;;;;8.43;5.55;;;12.20;92.40;;;;;;5053212;28;20080;-73
2021/03/09 01:39:01;;;;;;;7.80;4.78;;;12.10;92.20;;;;;;5043599;28;20499;-73
2021/03/09 01:41:28;;;;;;;5.88;4.80;;;12.10;92.30;;;;;;5040326;28;20049;-73
2021/03/09 01:43:56;;;;;;;7.10;4.60;;;12.20;92.20;;;;;;5037102;28;20277;-73
2021/03/09 01:46:24;;;;;;;6.45;4.50;;;12.20;92.00;;;;;;5035059;28;20044;-73
2021/03/09 01:48:52;;;;;;;6.00;4.45;;;12.20;91.70;;;;;;5043669;28;20055;-72
2021/03/09 01:51:20;;;;;;;7.38;4.10;;;12.20;91.60;;;;;;5042531;28;20037;-73
2021/03/09 01:53:48;;;;;;;5.65;4.60;;;12.20;91.60;;;;;;5033123;28;20119;-73
2021/03/09 01:56:15;;;;;;;5.97;4.25;;;12.20;91.50;;;;;;5024900;28;21363;-73
2021/03/09 01:58:48;;;;;;;6.43;4.32;;;12.30;91.40;;;;;;5042743;28;20127;-72
2021/03/09 02:01:17;;;;;;;5.30;3.80;;;12.30;91.30;;;;;;5035500;28;20068;-73
2021/03/09 02:03:44;;;;;;;6.68;4.00;;;12.30;91.40;;;;;;5057122;28;20060;-73
2021/03/09 02:06:15;;;;;;;6.05;3.65;;;12.30;91.40;;;;;;5043498;28;20049;-73
2021/03/09 02:08:43;;;;;;;6.35;4.07;;;12.30;91.30;;;;;;5054806;28;20551;-72
2021/03/09 02:11:31;;;;;;;6.82;3.83;;;12.30;91.30;;;;;;5039069;28;20510;-73
2021/03/09 02:14:08;;;;;;;7.45;4.00;;;12.30;91.40;;;;;;5052158;28;20048;-72
2021/03/09 02:16:40;;;;;;;;;;;12.30;91.60;;;;;;5036960;28;20165;-72
2021/03/09 02:19:39;;;;;;;5.35;3.38;;;12.30;91.30;;;;;;5056621;28;20018;-73
2021/03/09 02:22:30;;;;;;;4.55;3.83;;;12.20;91.60;;;;;;5039322;28;20045;-74
2021/03/09 02:25:08;;;;;;;6.30;3.47;;;12.20;91.70;;;;;;5036191;28;20094;-74
2021/03/09 02:27:47;;;;;;;6.53;3.92;;;12.30;91.60;;;;;;5052992;28;20124;-72
2021/03/09 02:30:22;;;;;;;5.90;3.38;;;12.20;91.70;;;;;;5049103;28;20043;-72
2021/03/09 02:32:58;;;;;;;5.57;3.38;;;12.20;92.00;;;;;;5025640;28;20071;-72
2021/03/09 02:35:29;;;;;;;4.15;2.95;;;12.20;92.00;;;;;;5049936;28;20601;-72
2021/03/09 02:38:01;;;;;;;6.43;3.60;;;12.20;92.10;;;;;;5035095;28;20392;-72
2021/03/09 02:40:29;;;;;;;4.38;3.30;;;12.20;92.00;;;;;;5035124;28;20045;-71
2021/03/09 02:43:01;;;;;;;7.78;3.30;;;12.10;92.20;;;;;;5019072;28;20064;-72
2021/03/09 02:45:31;;;;;;;6.07;3.88;;;12.20;92.40;;;;;;5050481;28;20044;-72
2021/03/09 02:48:00;;;;;;;4.82;3.28;;;12.20;92.40;;;;;;5031405;28;20049;-72
2021/03/09 02:50:29;;;;;;;7.03;3.58;;;12.20;92.50;;;;;;5021567;28;20063;-72
2021/03/09 02:53:03;;;;;;;5.43;3.60;;;12.20;92.70;;;;;;5028637;28;20036;-72
2021/03/09 02:55:32;;;;;;;4.90;3.05;;;12.20;92.70;;;;;;5052375;28;20084;-71
2021/03/09 02:58:01;;;;;;;6.45;3.00;;;12.10;92.90;;;;;;5031802;28;20118;-72
2021/03/09 03:00:29;;;;;;;4.05;2.95;;;12.10;92.90;;;;;;5038817;28;20060;-72
2021/03/09 03:02:58;;;;;;;6.07;3.30;;;12.10;93.00;;;;;;5049296;28;20045;-72
2021/03/09 03:05:26;;;;;;;5.88;3.40;;;12.10;93.00;;;;;;5040117;28;20072;-72
2021/03/09 03:07:53;;;;;;;6.28;3.70;;;12.10;93.10;;;;;;5039758;28;20516;-72
2021/03/09 03:10:21;;;;;;;6.57;2.95;;;12.10;93.30;;;;;;5045804;28;20036;-71
2021/03/09 03:12:50;;;;;;;5.47;3.08;;;12.10;93.20;;;;;;5033248;28;20036;-72
2021/03/09 03:15:19;;;;;;;3.38;2.70;;;12.10;93.40;;;;;;5040794;28;20036;-72
2021/03/09 03:17:47;;;;;;;5.47;3.10;;;12.10;93.30;;;;;;5040019;28;20090;-72
2021/03/09 03:20:17;;;;;;;3.47;2.83;;;12.10;93.50;;;;;;5051259;28;20044;-72
2021/03/09 03:22:47;;;;;;;4.10;2.95;;;12.10;93.50;;;;;;5037329;28;20593;-72
2021/03/09 03:25:15;;;;;;;4.65;3.65;;;12.10;93.50;;;;;;5055572;28;20037;-72
2021/03/09 03:27:45;;;;;;;3.90;2.95;;;12.10;93.60;;;;;;5055249;28;20068;-71
2021/03/09 03:30:15;;;;;;;3.88;2.88;;;12.00;93.70;;;;;;5040071;28;20045;-72
2021/03/09 03:32:43;;;;;;;3.35;2.80;;;12.00;93.80;;;;;;5032941;28;20262;-72
2021/03/09 03:35:14;;;;;;;4.63;2.30;;;12.10;93.80;;;;;;5036766;28;20036;-72
2021/03/09 03:37:42;;;;;;;3.60;2.30;;;12.10;93.70;;;;;;5034338;28;20048;-72
2021/03/09 03:40:11;;;;;;;3.60;2.22;;;12.20;93.80;;;;;;5040996;28;20059;-71
2021/03/09 03:42:40;;;;;;;3.80;2.63;;;12.20;93.70;;;;;;5050139;28;20045;-72
2021/03/09 03:45:09;;;;;;;3.80;2.53;;;12.20;93.70;;;;;;5046205;28;20558;-71
2021/03/09 03:47:37;;;;;;;4.65;2.05;;;12.20;93.60;;;;;;5050756;28;20048;-72
2021/03/09 03:50:15;;;;;;;4.00;2.60;;;12.20;93.70;;;;;;5051999;28;20048;-72
2021/03/09 03:52:52;;;;;;;4.53;2.47;;;12.20;93.70;;;;;;5043032;28;20485;-72
2021/03/09 03:55:33;;;;;;;3.83;1.92;;;12.20;93.70;;;;;;5036346;28;20041;-70
2021/03/09 03:58:09;;;;;;;3.22;2.03;;;12.20;93.60;;;;;;5047272;28;20055;-72
2021/03/09 04:00:36;;;;;;;4.70;2.17;;;12.30;93.50;;;;;;5039010;28;20053;-72
2021/03/09 04:03:06;;;;;;;2.47;1.88;;;12.30;93.80;;;;;;5053524;28;20143;-71
2021/03/09 04:05:36;;;;;;;2.22;1.70;;;12.20;93.80;;;;;;5042417;28;20403;-72
2021/03/09 04:08:04;;;;;;;2.60;1.70;;;12.20;93.80;;;;;;5034974;28;20776;-72
2021/03/09 04:10:31;;;;;;;1.75;1.50;;;12.30;93.80;;;;;;5015880;28;20056;-71
2021/03/09 04:12:59;;;;;;;2.25;1.55;;;12.30;93.70;;;;;;5038595;28;20126;-71
2021/03/09 04:15:28;;;;;;;1.63;1.50;;;12.30;93.80;;;;;;5052113;28;20051;-72
2021/03/09 04:17:58;;;;;;;1.95;1.20;;;12.30;93.60;;;;;;5032165;28;20140;-74
2021/03/09 04:20:41;;;;;;;1.70;1.33;;;12.20;93.60;;;;;;5050766;28;20048;-72
2021/03/09 04:23:11;;;;;;;3.47;1.20;;;12.30;93.70;;;;;;5060903;28;20494;-72
2021/03/09 04:25:40;;;;;;;1.17;0.90;;;12.20;93.60;;;;;;5052318;28;20044;-72
2021/03/09 04:28:08;;;;;;;2.13;0.80;;;12.20;93.50;;;;;;5040615;28;20049;-72
2021/03/09 04:30:36;;;;;;;1.50;1.15;;;12.20;93.70;;;;;;5040670;28;20044;-72
2021/03/09 04:33:04;;;;;;;1.10;0.90;;;12.20;93.80;;;;;;5023349;28;20045;-72
2021/03/09 04:35:31;;;;;;;1.33;0.93;;;12.20;93.60;;;;;;5032159;28;20044;-72
2021/03/09 04:37:59;;;;;;;1.13;0.70;;;12.20;93.70;;;;;;5042528;28;20122;-72
2021/03/09 04:40:27;;;;;;;1.45;0.75;;;12.20;93.50;;;;;;5039404;28;20044;-72
2021/03/09 04:42:54;;;;;;;0.90;0.55;;;12.20;93.60;;;;;;5043978;28;20128;-71
2021/03/09 04:45:22;;;;;;;0.90;0.60;;;12.20;93.60;;;;;;5036149;28;20750;-72
2021/03/09 04:47:49;;;;;;;0.95;0.80;;;12.20;93.70;;;;;;5058132;28;20048;-71
2021/03/09 04:50:17;;;;;;;1.00;0.60;;;12.20;93.80;;;;;;5055274;28;20045;-72
2021/03/09 04:52:47;;;;;;;0.60;0.52;;;12.20;93.70;;;;;;5033397;28;20053;-72
2021/03/09 04:55:19;;;;;;;1.30;0.60;;;12.20;93.60;;;;;;5054386;28;20375;-72
2021/03/09 04:57:48;;;;;;;0.88;0.50;;;12.20;93.70;;;;;;5057238;28;20096;-71
2021/03/09 05:00:17;;;;;;;0.50;0.50;;;12.20;93.60;;;;;;5039123;28;20048;-72
2021/03/09 05:02:46;;;;;;;1.00;0.47;;;12.20;93.60;;;;;;5042766;28;20068;-72
2021/03/09 05:05:15;;;;;;;0.52;0.43;;;12.20;93.70;;;;;;5039931;28;20630;-72
2021/03/09 05:07:42;;;;;;;0.63;0.50;;;12.10;93.70;;;;;;5042531;28;20045;-72
2021/03/09 05:10:11;;;;;;;0.50;0.45;;;12.20;93.60;;;;;;5036800;28;20041;-71
2021/03/09 05:12:41;;;;;;;1.10;0.40;;;12.10;93.60;;;;;;5020515;28;20510;-72
2021/03/09 05:15:09;;;;;;;0.98;0.52;;;12.10;93.60;;;;;;5055036;28;20037;-72
2021/03/09 05:17:37;;;;;;;2.83;0.47;;;12.10;93.60;;;;;;5022643;28;20045;-72
2021/03/09 05:20:07;;;;;;;0.52;0.50;;;12.10;93.60;;;;;;5026752;28;20040;-72
2021/03/09 05:22:35;;;;;;;0.60;0.45;;;12.10;93.60;;;;;;5052382;28;20040;-71
2021/03/09 05:25:03;;;;;;;0.60;0.57;;;12.10;93.40;;;;;;5054318;28;20044;-72
2021/03/09 05:27:30;;;;;;;0.40;0.40;;;12.20;93.50;;;;;;5038707;28;20080;-72
2021/03/09 05:29:58;;;;;;;0.40;0.32;;;12.10;93.30;;;;;;5037455;28;20037;-72
2021/03/09 05:32:25;;;;;;;0.40;0.40;;;12.10;93.50;;;;;;5038176;28;20041;-72
2021/03/09 05:34:54;;;;;;;0.70;0.52;;;12.10;93.30;;;;;;5055515;28;20032;-72
2021/03/09 05:37:22;;;;;;;0.82;0.57;;;12.10;93.50;;;;;;5054540;28;20126;-72
2021/03/09 05:39:50;;;;;;;0.70;0.45;;;12.10;93.10;;;;;;5038913;28;20040;-72
2021/03/09 05:42:17;;;;;;;0.50;0.45;;;12.10;93.40;;;;;;5041293;28;20050;-72
2021/03/09 05:44:47;;;;;;;1.30;0.57;;;12.20;93.40;;;;;;5042109;28;20045;-72
2021/03/09 05:47:15;;;;;;;0.70;0.32;;;12.20;93.10;;;;;;5056980;28;20047;-72
2021/03/09 05:49:47;;;;;;;0.35;0.30;;;12.20;93.00;;;;;;5013750;28;20144;-72
2021/03/09 05:52:17;;;;;;;0.70;0.50;;;12.20;93.00;;;;;;5031354;28;20045;-72
2021/03/09 05:54:45;;;;;;;0.60;0.38;;;12.10;92.80;;;;;;5036648;28;20045;-72
2021/03/09 05:57:13;;;;;;;0.95;0.65;;;12.10;93.00;;;;;;5028905;28;20029;-71
2021/03/09 05:59:40;;;;;;;1.00;0.43;;;12.10;93.00;;;;;;5040089;28;20041;-72
2021/03/09 06:02:08;;;;;;;0.40;0.30;;;12.10;92.80;;;;;;5038470;28;20041;-72
2021/03/09 06:04:37;;;;;;;0.57;0.30;;;12.10;92.80;;;;;;5012659;28;20057;-72
2021/03/09 06:07:05;;;;;;;0.50;0.30;;;12.10;92.80;;;;;;5015858;28;20120;-72
2021/03/09 06:09:37;;;;;;;0.32;0.20;;;12.10;92.60;;;;;;5037222;28;20047;-72
2021/03/09 06:12:10;;;;;;;1.45;0.30;;;12.10;92.70;;;;;;5033294;28;20041;-71
2021/03/09 06:14:39;;;;;;;0.30;0.30;;;12.10;92.60;;;;;;5017933;28;20329;-72
2021/03/09 06:17:10;;;;;;;0.35;0.22;;;12.10;92.60;;;;;;5037811;28;20075;-72
2021/03/09 06:19:47;;;;;;;1.42;0.40;;;12.10;92.50;;;;;;5032806;28;20362;-71
2021/03/09 06:22:15;;;;;;;0.30;0.20;;;12.10;92.40;;;;;;5034046;28;20046;-72
2021/03/09 06:24:43;;;;;;;0.52;0.30;;;12.10;92.30;;;;;;5019898;28;20033;-72
2021/03/09 06:27:24;;;;;;;0.60;0.30;;;12.10;92.10;;;;;;5030583;28;20060;-71
2021/03/09 06:29:52;;;;;;;0.50;0.30;;;12.10;91.90;;;;;;5034142;28;20047;-71
2021/03/09 06:32:20;;;;;;;1.67;0.60;;;12.10;91.90;;;;;;5032638;28;20430;-71
2021/03/09 06:34:50;;;;;;;0.63;0.45;;;12.10;92.10;;;;;;5033706;28;20045;-72
2021/03/09 06:37:20;;;;;;;0.70;0.40;;;12.20;91.90;;;;;;5031984;28;20045;-71
2021/03/09 06:39:51;;;;;;;0.70;0.30;;;12.20;92.10;;;;;;5029825;28;20089;-71
2021/03/09 06:42:23;;;;;;;1.08;0.50;;;12.20;92.10;;;;;;5037414;28;20384;-71
2021/03/09 06:44:53;;;;;;;0.70;0.43;;;12.20;92.00;;;;;;5034019;28;20047;-72
2021/03/09 06:47:33;;;;;;;0.80;0.32;;;12.10;92.10;;;;;;5035113;28;20065;-71
2021/03/09 06:50:05;;;;;;;0.50;0.28;;;12.20;92.00;;;;;;5026801;28;20049;-71
2021/03/09 06:52:34;;;;;;;0.70;0.40;;;12.20;91.60;;;;;;5035625;28;20045;-71
2021/03/09 06:55:01;;;;;;;1.30;0.60;;;12.20;91.60;;;;;;5031230;28;20091;-72
2021/03/09 06:57:29;;;;;;;1.00;0.55;;;12.20;91.50;;;;;;5034296;28;20045;-71
2021/03/09 06:59:57;;;;;;;1.70;0.50;;;12.20;91.60;;;;;;5030555;28;20052;-71
2021/03/09 07:02:26;;;;;;;1.63;0.50;;;12.20;91.60;;;;;;5031354;28;20136;-72
2021/03/09 07:05:01;;;;;;;1.00;0.57;;;12.20;91.40;;;;;;5038040;28;20450;-71
2021/03/09 07:07:30;;;;;;;0.80;0.57;;;12.20;91.50;;;;;;5030638;28;20515;-71
2021/03/09 07:09:59;;;;;;;0.80;0.50;;;12.30;91.50;;;;;;5028631;28;20088;-71
2021/03/09 07:12:28;;;;;;;1.73;0.60;;;12.40;91.50;;;;;;5029130;28;20044;-71
2021/03/09 07:14:57;;;;;;;0.70;0.70;;;12.40;91.50;;;;;;5031657;28;20095;-71
2021/03/09 07:17:27;;;;;;;1.25;0.60;;;12.50;91.20;;;;;;5035428;28;20041;-71
2021/03/09 07:19:56;;;;;;;1.10;1.00;;;12.50;91.20;;;;;;5032932;28;20048;-72
2021/03/09 07:22:30;;;;;;;1.25;0.82;;;12.50;91.10;;;;;;5034407;28;20047;-71
2021/03/09 07:25:01;;;;;;;1.58;0.93;;;12.50;90.90;;;;;;5031321;28;20167;-71
2021/03/09 07:27:38;;;;;;;1.17;1.08;;;12.60;90.70;;;;;;5029119;28;20055;-71
2021/03/09 07:30:08;;;;;;;0.90;0.70;;;12.60;90.50;;;;;;5025883;28;20111;-71
2021/03/09 07:32:39;;;;;;;1.23;0.90;;;12.60;90.20;;;;;;5031169;28;20321;-71
2021/03/09 07:35:09;;;;;;;1.63;1.10;;;12.60;90.30;;;;;;5034864;28;20034;-71
2021/03/09 07:37:39;;;;;;;1.20;0.90;;;12.70;90.30;;;;;;5036674;28;20040;-71
2021/03/09 07:40:09;;;;;;;1.90;1.35;;;12.70;90.00;;;;;;5034574;28;20435;-71
2021/03/09 07:42:37;;;;;;;2.08;1.10;;;12.70;90.10;;;;;;5030695;28;20053;-71
2021/03/09 07:45:08;;;;;;;1.83;1.55;;;12.70;90.00;;;;;;5035202;28;20041;-71
2021/03/09 07:47:41;;;;;;;1.95;1.27;;;12.80;90.20;;;;;;5027865;28;20057;-70
2021/03/09 07:50:12;;;;;;;1.77;1.30;;;12.80;90.20;;;;;;5008406;28;20076;-71
2021/03/09 07:53:04;;;;;;;1.60;1.10;;;12.80;89.90;;;;;;5029251;28;20040;-71
2021/03/09 07:55:31;;;;;;;1.70;1.40;;;12.80;90.50;;;;;;5029256;28;20036;-71
2021/03/09 07:58:13;;;;;;;1.67;1.30;;;13.00;90.60;;;;;;5031402;28;20068;-76
2021/03/09 08:00:48;;;;;;;2.25;1.08;;;13.10;90.40;;;;;;5029342;28;20056;-72
2021/03/09 08:03:18;;;;;;;2.20;1.23;;;13.20;90.40;;;;;;5043451;28;20080;-72
2021/03/09 08:05:50;;;;;;;2.08;1.10;;;13.20;89.50;;;;;;5028986;28;20056;-71
2021/03/09 08:08:46;;;;;;;2.67;1.27;;;13.30;89.50;;;;;;5033949;28;20060;-72
2021/03/09 08:11:36;;;;;;;2.00;1.30;;;13.40;89.30;;;;;;5032976;28;20036;-75
2021/03/09 08:14:18;;;;;;;2.20;1.30;;;13.50;89.80;;;;;;5034849;28;20579;-73
2021/03/09 08:16:47;;;;;;;1.70;1.20;;;13.60;89.30;;;;;;5013631;28;20712;-72
2021/03/09 08:19:39;;;;;;;1.60;1.10;;;13.60;88.70;;;;;;5023396;28;20055;-72
2021/03/09 08:22:08;;;;;;;1.58;0.95;;;13.70;88.90;;;;;;5031734;28;20040;-72
2021/03/09 08:24:53;;;;;;;2.03;1.08;;;13.70;87.80;;;;;;5035236;28;20035;-71
2021/03/09 08:27:41;;;;;;;3.60;1.23;;;13.80;89.60;;;;;;5028117;28;20057;-71
2021/03/09 08:30:24;;;;;;;1.77;1.10;;;13.80;89.40;;;;;;5032224;28;20049;-71
2021/03/09 08:32:52;;;;;;;4.03;1.20;;;13.80;89.10;;;;;;5024406;28;20301;-72
2021/03/09 08:35:35;;;;;;;3.03;1.42;;;13.90;89.60;;;;;;5028673;28;20487;-72
2021/03/09 08:38:20;;;;;;;1.30;0.80;;;13.90;88.90;;;;;;5025004;28;20047;-71
2021/03/09 08:41:10;;;;;;;2.40;1.25;;;13.90;90.60;;;;;;5026741;28;20061;-71
2021/03/09 08:43:40;;;;;;;3.20;1.15;;;13.80;88.40;;;;;;5027230;28;20503;-70
2021/03/09 08:46:11;;;;;;;1.77;1.05;;;13.70;89.70;;;;;;5028531;28;20037;-71
2021/03/09 08:48:54;;;;;;;2.50;1.25;;;13.70;89.80;;;;;;5045403;28;20557;-71
2021/03/09 08:51:40;;;;;;;2.30;1.50;;;13.70;90.10;;;;;;5010488;28;20045;-70
2021/03/09 08:54:27;;;;;;;4.20;1.48;;;13.70;89.10;;;;;;5029669;28;20072;-71
2021/03/09 08:56:57;;;;;;;2.40;1.40;;;13.60;89.50;;;;;;5036004;28;20531;-71
2021/03/09 08:59:29;;;;;;;4.10;2.10;;;13.60;88.90;;;;;;5030277;28;20487;-72
2021/03/09 09:02:13;;;;;;;4.25;1.52;;;13.70;90.40;;;;;;5033961;28;20045;-71
2021/03/09 09:04:43;;;;;;;2.70;1.45;;;13.70;89.40;;;;;;5029564;28;20532;-71
2021/03/09 09:07:25;;;;;;;1.95;1.58;;;13.80;89.00;;;;;;5035432;28;20048;-71
2021/03/09 09:09:55;;;;;;;2.53;1.60;;;13.70;87.70;;;;;;5034263;28;20472;-70
2021/03/09 09:27:03;;;;;;;4.70;2.08;;;13.90;87.50;;;;;;5062510;27;20532;-74
2021/03/09 09:29:35;;;;;;;3.72;1.95;;;14.40;87.60;;;;;;5051317;28;20131;-74
2021/03/09 09:32:03;;;;;;;2.60;1.70;;;14.40;87.30;;;;;;5052221;28;20041;-74
2021/03/09 09:34:34;;;;;;;4.03;2.00;;;14.60;87.50;;;;;;5033911;28;20235;-74
2021/03/09 09:37:11;;;;;;;3.70;1.92;;;14.70;86.40;;;;;;5044907;28;20048;-74
2021/03/09 09:39:39;;;;;;;3.15;2.10;;;14.80;86.50;;;;;;5050616;28;20041;-74
2021/03/09 09:42:14;;;;;;;2.38;1.73;;;15.00;85.00;;;;;;5049685;28;20119;-75
2021/03/09 09:44:42;;;;;;;3.55;1.92;;;15.10;84.90;;;;;;5049136;28;20360;-75
2021/03/09 09:47:12;;;;;;;3.50;1.98;;;15.20;84.80;;;;;;5051228;28;20563;-74
2021/03/09 09:49:43;;;;;;;2.97;1.83;;;15.30;84.50;;;;;;5049093;28;20044;-74
2021/03/09 09:52:13;;;;;;;3.45;2.20;;;15.50;84.00;;;;;;5028402;28;20434;-73
2021/03/09 09:54:40;;;;;;;3.40;2.10;;;15.60;82.60;;;;;;5049948;28;20091;-73
2021/03/09 09:57:10;;;;;;;3.47;2.20;;;15.60;82.80;;;;;;5048015;28;20068;-73
2021/03/09 09:59:38;;;;;;;5.75;2.17;;;15.60;81.90;;;;;;5047651;28;20068;-74
2021/03/09 10:02:16;;;;;;;4.15;2.40;;;15.70;81.30;;;;;;5054240;28;20083;-74
2021/03/09 10:04:44;;;;;;;6.82;2.50;;;15.80;81.00;;;;;;5048758;28;20049;-73
2021/03/09 10:07:15;;;;;;;4.80;2.97;;;15.80;81.40;;;;;;5054431;28;20036;-74
2021/03/09 10:09:59;;;;;;;3.30;2.10;;;15.80;80.50;;;;;;5052514;28;20145;-75
2021/03/09 10:12:43;;;;;;;6.10;2.53;;;16.00;80.90;;;;;;5046266;28;20055;-74
2021/03/09 10:15:12;;;;;;;3.45;2.53;;;16.00;80.30;;;;;;5046018;28;20052;-75
2021/03/09 10:17:40;;;;;;;5.15;2.60;;;16.00;80.30;;;;;;5051294;28;20654;-75
2021/03/09 10:20:23;;;;;;;3.88;2.45;;;16.00;80.20;;;;;;5052792;28;20502;-73
2021/03/09 10:23:01;;;;;;;3.65;2.17;;;16.10;80.20;;;;;;5047468;28;20102;-73
2021/03/09 10:25:29;;;;;;;5.32;2.28;;;16.20;80.10;;;;;;5041459;28;20503;-73
2021/03/09 10:28:05;;;;;;;4.47;2.80;;;16.20;79.30;;;;;;5038906;28;20578;-73
2021/03/09 10:30:37;;;;;;;3.67;3.07;;;16.20;78.40;;;;;;5039988;28;20071;-73
2021/03/09 10:33:09;;;;;;;4.03;2.75;;;16.30;78.20;;;;;;5034873;28;20291;-73
2021/03/09 10:36:06;;;;;;;4.13;2.67;;;16.30;78.40;;;;;;5040709;28;20525;-74
2021/03/09 10:38:34;;;;;;;3.95;3.13;;;16.30;78.60;;;;;;5030245;28;20938;-73
2021/03/09 10:41:03;;;;;;;3.25;2.75;;;16.20;78.70;;;;;;5037930;28;20526;-73
2021/03/09 10:43:49;;;;;;;7.30;2.95;;;16.10;78.60;;;;;;5036464;28;20418;-73
2021/03/09 10:46:18;;;;;;;4.38;2.55;;;16.10;78.80;;;;;;5038709;28;20044;-74
2021/03/09 10:48:46;;;;;;;6.13;3.28;;;16.10;78.60;;;;;;5036969;28;20127;-74
2021/03/09 10:51:15;;;;;;;3.28;2.38;;;16.30;78.80;;;;;;5038809;28;20040;-73
2021/03/09 10:53:43;;;;;;;4.68;3.28;;;16.30;78.00;;;;;;5037612;28;20110;-73
2021/03/09 10:56:10;;;;;;;4.82;3.15;;;16.30;78.70;;;;;;5035192;28;20049;-73
2021/03/09 10:58:38;;;;;;;3.72;3.33;;;16.20;78.00;;;;;;5037607;28;20033;-73
2021/03/09 11:01:05;;;;;;;5.25;2.72;;;16.30;78.70;;;;;;5037042;28;20037;-74
2021/03/09 11:03:34;;;;;;;4.00;2.72;;;16.40;78.20;;;;;;5039228;28;20040;-73
2021/03/09 11:06:02;;;;;;;5.43;2.72;;;16.30;78.00;;;;;;5038338;28;20096;-74
2021/03/09 11:08:29;;;;;;;4.85;3.10;;;16.30;77.80;;;;;;5033116;28;20111;-73
2021/03/09 11:10:56;;;;;;;5.50;3.25;;;16.30;77.90;;;;;;5033306;28;20072;-73
2021/03/09 11:13:24;;;;;;;6.07;3.00;;;16.20;77.40;;;;;;5039048;28;20122;-73
2021/03/09 11:15:52;;;;;;;4.63;3.03;;;16.20;77.40;;;;;;5040721;28;20044;-74
2021/03/09 11:18:19;;;;;;;6.57;3.00;;;16.30;77.40;;;;;;5020031;28;20029;-74
2021/03/09 11:20:48;;;;;;;4.22;2.97;;;16.20;77.10;;;;;;5041248;28;20552;-73
2021/03/09 11:23:15;;;;;;;7.13;3.70;;;16.20;77.20;;;;;;5037985;28;20033;-74
2021/03/09 11:25:42;;;;;;;4.97;3.58;;;16.20;77.20;;;;;;5032204;28;20050;-74
2021/03/09 11:28:10;;;;;;;4.88;3.67;;;16.30;77.20;;;;;;5034789;28;20052;-73
2021/03/09 11:30:37;;;;;;;5.00;3.65;;;16.50;77.20;;;;;;5039264;28;20617;-74
2021/03/09 11:33:05;;;;;;;5.78;4.10;;;16.50;76.90;;;;;;5039316;28;20057;-73
2021/03/09 11:35:32;;;;;;;5.10;3.53;;;16.60;77.00;;;;;;5035692;28;20131;-73
2021/03/09 11:38:01;;;;;;;5.13;3.88;;;16.70;76.20;;;;;;5035650;28;20433;-74
2021/03/09 11:40:28;;;;;;;4.80;3.42;;;16.80;76.10;;;;;;5035195;28;20046;-74
2021/03/09 11:42:55;;;;;;;6.82;3.58;;;16.90;76.30;;;;;;5028393;28;20033;-74
2021/03/09 11:45:23;;;;;;;7.60;3.90;;;17.00;75.80;;;;;;5040253;28;20043;-73
2021/03/09 11:47:51;;;;;;;5.65;3.67;;;17.00;75.40;;;;;;5031291;28;20315;-74
2021/03/09 11:50:18;;;;;;;6.40;3.85;;;17.20;76.00;;;;;;5031578;28;20068;-74
2021/03/09 11:52:46;;;;;;;4.40;3.30;;;17.30;75.40;;;;;;5032112;28;20342;-74
2021/03/09 11:55:14;;;;;;;4.70;3.10;;;17.30;74.50;;;;;;5031246;28;20045;-74
2021/03/09 11:57:41;;;;;;;6.00;3.88;;;17.20;74.60;;;;;;5038966;28;20068;-74
2021/03/09 12:00:10;;;;;;;6.40;3.72;;;17.30;74.70;;;;;;5038038;28;20037;-74
2021/03/09 12:02:37;;;;;;;5.35;4.07;;;17.40;74.40;;;;;;5034346;28;20203;-73
2021/03/09 12:05:06;;;;;;;5.85;3.92;;;17.50;74.50;;;;;;5033710;28;20068;-73
2021/03/09 12:07:33;;;;;;;6.10;3.25;;;17.50;74.70;;;;;;5012838;28;20107;-73
2021/03/09 12:10:01;;;;;;;4.95;4.05;;;17.60;75.10;;;;;;5038842;28;20043;-73
2021/03/09 12:12:29;;;;;;;8.25;4.43;;;17.70;74.20;;;;;;5036134;28;20128;-73
2021/03/09 12:14:57;;;;;;;6.38;3.92;;;17.70;74.00;;;;;;5031610;28;20510;-74
2021/03/09 12:17:24;;;;;;;5.35;3.97;;;17.70;74.30;;;;;;5036421;28;20133;-74
2021/03/09 12:19:52;;;;;;;6.28;4.28;;;17.60;74.40;;;;;;5030968;28;20056;-74
2021/03/09 12:22:19;;;;;;;5.32;3.70;;;17.60;74.20;;;;;;5028678;28;20034;-74
2021/03/09 12:24:47;;;;;;;6.22;3.85;;;17.70;73.50;;;;;;5017440;28;20755;-74
2021/03/09 12:27:14;;;;;;;5.28;3.92;;;17.80;72.70;;;;;;5000279;28;20041;-74
2021/03/09 12:29:42;;;;;;;5.50;4.13;;;17.90;73.00;;;;;;5016016;28;20549;-74
2021/03/09 12:32:10;;;;;;;8.02;3.88;;;17.90;73.00;;;;;;5037524;28;20032;-74
2021/03/09 12:34:38;;;;;;;6.32;4.25;;;18.00;73.60;;;;;;5036043;28;20415;-74
2021/03/09 12:37:06;;;;;;;4.65;3.53;;;18.10;73.50;;;;;;5029803;28;20068;-74
2021/03/09 12:39:33;;;;;;;5.05;3.65;;;18.00;72.40;;;;;;5035476;28;20045;-73
2021/03/09 12:42:01;;;;;;;6.10;3.55;;;18.00;72.80;;;;;;5033955;28;20628;-74
2021/03/09 12:44:28;;;;;;;5.53;3.88;;;18.10;72.90;;;;;;5038467;28;20076;-74
2021/03/09 12:46:56;;;;;;;5.60;3.72;;;18.20;72.30;;;;;;5036867;28;20114;-74
2021/03/09 12:49:24;;;;;;;5.57;3.33;;;18.20;71.30;;;;;;5031566;28;20045;-73
2021/03/09 12:51:51;;;;;;;6.82;3.90;;;18.10;72.20;;;;;;5029469;28;20571;-73
2021/03/09 12:54:19;;;;;;;6.45;3.38;;;18.30;72.40;;;;;;5034765;28;20483;-73
2021/03/09 12:56:46;;;;;;;4.28;3.47;;;18.50;72.20;;;;;;5030508;28;20468;-74
2021/03/09 12:59:13;;;;;;;4.90;3.75;;;18.50;71.50;;;;;;5029702;28;20044;-74
2021/03/09 13:01:41;;;;;;;4.82;3.50;;;18.40;71.00;;;;;;5028217;28;20063;-74
2021/03/09 13:04:10;;;;;;;7.07;3.45;;;18.50;71.60;;;;;;5017498;28;20051;-71
2021/03/09 13:06:37;;;;;;;7.63;3.60;;;18.50;70.80;;;;;;5033543;28;20213;-71
2021/03/09 13:09:06;;;;;;;4.60;3.28;;;18.50;70.30;;;;;;5028631;28;20056;-71
2021/03/09 13:11:34;;;;;;;4.68;3.25;;;18.50;70.70;;;;;;5033905;28;20041;-71
2021/03/09 13:14:02;;;;;;;5.88;3.15;;;18.60;71.30;;;;;;5034227;28;20410;-71
2021/03/09 13:16:29;;;;;;;7.38;3.40;;;18.60;70.60;;;;;;5015808;28;20051;-71
2021/03/09 13:18:58;;;;;;;6.15;3.15;;;18.50;70.80;;;;;;5032155;28;20327;-71